Time;durP1;ratioP1;P1;durP2;ratioP2;P2;SDS_P1;SDS_P2;PMS_P1;PMS_P2;Temp;Humidity;BMP_temperature;BMP_pressure;BME280_temperature;BME280_humidity;BME280_pressure;Samples;Min_cycle;Max_cycle;Signal;HPM_P1;HPM_P2
2021/01/01 00:00:05;;;;;;;29.55;17.27;;;2.80;99.90;;;;;;5100361;28;20384;-50
2021/01/01 00:02:30;;;;;;;31.92;18.17;;;2.80;99.90;;;;;;5104336;28;20384;-50
2021/01/01 00:04:56;;;;;;;34.27;19.37;;;2.90;99.90;;;;;;5098597;28;20494;-50
2021/01/01 00:07:22;;;;;;;30.45;18.10;;;3.20;99.90;;;;;;5107703;28;20457;-51
2021/01/01 00:09:47;;;;;;;30.10;18.07;;;3.10;99.90;;;;;;5103659;28;20390;-55
2021/01/01 00:12:13;;;;;;;27.05;15.20;;;5.30;99.90;;;;;;5102237;28;21030;-50
2021/01/01 00:14:38;;;;;;;30.58;17.27;;;5.00;99.90;;;;;;5101928;28;20391;-51
2021/01/01 00:17:05;;;;;;;29.53;16.70;;;3.20;99.90;;;;;;5105119;28;20391;-50
2021/01/01 00:19:31;;;;;;;26.35;15.43;;;3.20;99.90;;;;;;5107416;28;20372;-51
2021/01/01 00:21:56;;;;;;;28.55;16.95;;;3.20;99.90;;;;;;5101615;28;20875;-50
2021/01/01 00:24:22;;;;;;;28.37;16.70;;;5.10;99.90;;;;;;5107010;28;20399;-50
2021/01/01 00:26:51;;;;;;;31.67;16.13;;;3.30;99.90;;;;;;5104648;28;20417;-51
2021/01/01 00:29:17;;;;;;;25.42;15.75;;;3.40;99.90;;;;;;5099217;28;20423;-51
2021/01/01 00:31:43;;;;;;;25.40;14.57;;;3.50;99.90;;;;;;5109364;28;20399;-50
2021/01/01 00:34:08;;;;;;;26.15;14.77;;;3.50;99.90;;;;;;5101578;28;20424;-56
2021/01/01 00:36:34;;;;;;;22.23;13.70;;;3.80;99.90;;;;;;5103291;28;20433;-51
2021/01/01 00:38:59;;;;;;;22.83;13.95;;;4.90;99.90;;;;;;5109373;28;20372;-50
2021/01/01 00:41:29;;;;;;;23.70;13.80;;;6.70;99.90;;;;;;5096790;28;20866;-50
2021/01/01 00:43:56;;;;;;;23.83;14.05;;;3.90;99.90;;;;;;5108252;28;20852;-52
2021/01/01 00:46:23;;;;;;;25.05;13.48;;;4.70;99.90;;;;;;5099835;28;20414;-50
2021/01/01 00:48:50;;;;;;;22.45;13.60;;;5.70;99.90;;;;;;5105622;28;20416;-50
2021/01/01 00:51:27;;;;;;;24.02;13.35;;;3.60;99.90;;;;;;5099684;28;20384;-50
2021/01/01 00:53:52;;;;;;;27.35;14.82;;;3.50;99.90;;;;;;5107430;28;20389;-51
2021/01/01 00:56:20;;;;;;;24.13;13.85;;;3.40;99.90;;;;;;5096735;28;20409;-50
2021/01/01 00:58:46;;;;;;;23.80;14.65;;;3.30;99.90;;;;;;5105705;28;20476;-49
2021/01/01 01:01:11;;;;;;;26.70;15.10;;;3.70;99.90;;;;;;5099562;28;20460;-56
2021/01/01 01:03:37;;;;;;;26.90;15.25;;;4.90;99.90;;;;;;5094997;28;20380;-51
2021/01/01 01:06:02;;;;;;;25.63;15.70;;;3.30;99.90;;;;;;5111930;28;20392;-51
2021/01/01 01:08:28;;;;;;;25.85;14.35;;;3.30;99.90;;;;;;5103161;28;20393;-50
2021/01/01 01:10:54;;;;;;;23.23;13.10;;;3.20;99.90;;;;;;5108173;28;20387;-50
2021/01/01 01:13:19;;;;;;;22.07;13.00;;;3.90;99.90;;;;;;5107555;28;20737;-51
2021/01/01 01:15:45;;;;;;;20.60;13.25;;;3.30;99.90;;;;;;5100680;28;20424;-50
2021/01/01 01:18:10;;;;;;;21.97;12.63;;;4.80;99.90;;;;;;5101948;28;20376;-57
2021/01/01 01:20:36;;;;;;;22.10;12.30;;;4.70;99.90;;;;;;5105274;28;20384;-51
2021/01/01 01:23:02;;;;;;;23.58;12.40;;;3.50;99.90;;;;;;5091902;28;20396;-51
2021/01/01 01:25:27;;;;;;;21.20;12.20;;;3.70;99.90;;;;;;5109785;28;20379;-51
2021/01/01 01:27:53;;;;;;;19.10;11.60;;;3.80;99.90;;;;;;5105098;28;20941;-51
2021/01/01 01:30:19;;;;;;;20.10;12.50;;;5.70;99.90;;;;;;5106518;28;20392;-51
2021/01/01 01:32:44;;;;;;;18.48;11.40;;;3.90;99.90;;;;;;5112341;28;20396;-50
2021/01/01 01:35:10;;;;;;;19.43;12.20;;;3.90;99.90;;;;;;5101390;28;20421;-56
2021/01/01 01:37:38;;;;;;;18.92;11.80;;;3.90;99.90;;;;;;5110529;28;20411;-50
2021/01/01 01:40:04;;;;;;;21.13;13.00;;;4.90;99.90;;;;;;5107532;28;20475;-51
2021/01/01 01:42:30;;;;;;;19.92;12.10;;;3.90;99.90;;;;;;5094479;28;20457;-51
2021/01/01 01:44:55;;;;;;;17.80;11.43;;;5.40;99.90;;;;;;5111901;28;20381;-50
2021/01/01 01:47:21;;;;;;;18.40;11.57;;;4.50;99.90;;;;;;5106590;28;20418;-50
2021/01/01 01:49:48;;;;;;;20.05;11.60;;;4.20;99.90;;;;;;5104065;28;20873;-51
2021/01/01 01:52:14;;;;;;;19.77;11.90;;;7.00;99.90;;;;;;5111479;28;20388;-51
2021/01/01 01:54:40;;;;;;;19.10;12.15;;;4.20;99.90;;;;;;5100953;28;20964;-51
2021/01/01 01:57:09;;;;;;;20.75;11.63;;;5.90;99.90;;;;;;5105334;28;20425;-51
2021/01/01 01:59:35;;;;;;;18.08;11.05;;;4.20;99.90;;;;;;5097772;28;20397;-51
2021/01/01 02:02:01;;;;;;;19.45;11.63;;;4.30;99.90;;;;;;5111172;28;20761;-51
2021/01/01 02:04:26;;;;;;;19.03;11.77;;;4.30;99.90;;;;;;5110920;28;20380;-53
2021/01/01 02:06:52;;;;;;;18.87;11.20;;;4.40;99.90;;;;;;5098278;28;20400;-51
2021/01/01 02:09:18;;;;;;;18.75;11.60;;;6.20;99.90;;;;;;5109262;28;20384;-53
2021/01/01 02:11:48;;;;;;;18.67;11.15;;;4.40;99.90;;;;;;5096878;28;20392;-51
2021/01/01 02:14:13;;;;;;;17.45;11.27;;;4.30;99.90;;;;;;5109182;28;20403;-50
2021/01/01 02:16:39;;;;;;;17.33;11.02;;;5.20;99.90;;;;;;5095592;28;20853;-50
2021/01/01 02:19:04;;;;;;;20.87;11.70;;;4.40;99.90;;;;;;5110072;28;20385;-51
2021/01/01 02:21:30;;;;;;;19.67;10.97;;;6.30;99.90;;;;;;5097210;28;21026;-50
2021/01/01 02:23:56;;;;;;;20.30;11.88;;;4.40;99.90;;;;;;5109113;28;20449;-50
2021/01/01 02:26:21;;;;;;;18.20;11.70;;;4.40;99.90;;;;;;5110215;28;20428;-51
2021/01/01 02:28:47;;;;;;;20.10;11.40;;;4.40;99.90;;;;;;5097502;28;20909;-50
2021/01/01 02:31:12;;;;;;;21.00;11.80;;;4.30;99.90;;;;;;5099486;28;20520;-56
2021/01/01 02:33:38;;;;;;;19.57;11.87;;;4.50;99.90;;;;;;5106171;28;20396;-50
2021/01/01 02:36:04;;;;;;;20.88;12.00;;;4.30;99.90;;;;;;5099550;28;20404;-50
2021/01/01 02:38:30;;;;;;;22.08;12.23;;;4.30;99.90;;;;;;5108546;28;21022;-50
2021/01/01 02:40:56;;;;;;;21.73;12.80;;;4.20;99.90;;;;;;5090790;28;20394;-52
2021/01/01 02:43:22;;;;;;;20.85;12.45;;;5.20;99.90;;;;;;5096850;28;20398;-52
2021/01/01 02:45:48;;;;;;;21.95;12.70;;;4.20;99.90;;;;;;5084704;28;20749;-50
2021/01/01 02:48:19;;;;;;;22.70;13.37;;;4.10;99.90;;;;;;5070252;28;20387;-51
2021/01/01 02:50:45;;;;;;;23.87;13.60;;;3.90;99.90;;;;;;5080588;28;20981;-50
2021/01/01 02:53:11;;;;;;;25.13;13.77;;;3.90;99.90;;;;;;5074615;28;20809;-52
2021/01/01 02:55:37;;;;;;;24.45;14.20;;;3.80;99.90;;;;;;5076839;28;20417;-53
2021/01/01 02:58:03;;;;;;;24.67;14.10;;;5.60;99.90;;;;;;5083937;28;20413;-50
2021/01/01 03:00:30;;;;;;;22.98;13.40;;;3.90;99.90;;;;;;5083861;28;20406;-50
2021/01/01 03:02:56;;;;;;;23.38;14.52;;;4.00;99.90;;;;;;5081929;28;20500;-52
2021/01/01 03:05:22;;;;;;;26.75;13.70;;;4.00;99.90;;;;;;5089830;28;20461;-51
2021/01/01 03:07:47;;;;;;;22.03;13.00;;;4.00;99.90;;;;;;5081714;28;20425;-50
2021/01/01 03:10:13;;;;;;;24.70;13.73;;;5.30;99.90;;;;;;5082720;28;20378;-57
2021/01/01 03:12:39;;;;;;;23.80;13.02;;;4.10;99.90;;;;;;5083984;28;20393;-50
2021/01/01 03:15:06;;;;;;;22.52;14.02;;;4.20;99.90;;;;;;5074980;28;20386;-50
2021/01/01 03:17:31;;;;;;;25.85;14.18;;;4.20;99.90;;;;;;5069730;28;20380;-51
2021/01/01 03:19:57;;;;;;;23.70;13.60;;;5.00;99.90;;;;;;5082525;28;20447;-50
2021/01/01 03:22:23;;;;;;;25.05;14.57;;;4.20;99.90;;;;;;5069988;28;20384;-51
2021/01/01 03:24:48;;;;;;;23.80;13.90;;;4.30;99.90;;;;;;5076034;28;20403;-50
2021/01/01 03:27:14;;;;;;;24.70;12.93;;;4.20;99.90;;;;;;5084840;28;20508;-51
2021/01/01 03:29:39;;;;;;;22.10;13.60;;;4.20;99.90;;;;;;5086583;28;20385;-52
2021/01/01 03:32:05;;;;;;;24.63;14.60;;;4.20;99.90;;;;;;5081860;28;20406;-50
2021/01/01 03:34:31;;;;;;;21.20;12.55;;;5.70;99.90;;;;;;5075444;28;20467;-51
2021/01/01 03:36:56;;;;;;;22.83;13.25;;;4.30;99.90;;;;;;5083365;28;20382;-50
2021/01/01 03:39:22;;;;;;;20.90;12.30;;;4.30;99.90;;;;;;5089477;28;20756;-51
2021/01/01 03:41:48;;;;;;;25.50;13.15;;;4.40;99.90;;;;;;5079971;28;20484;-51
2021/01/01 03:44:13;;;;;;;23.70;13.50;;;5.30;99.90;;;;;;5084110;28;20473;-51
2021/01/01 03:46:39;;;;;;;23.60;13.10;;;4.90;99.90;;;;;;5088875;28;20447;-51
2021/01/01 03:49:04;;;;;;;22.13;12.67;;;7.00;99.90;;;;;;5079558;28;20415;-50
2021/01/01 03:51:30;;;;;;;21.60;13.77;;;5.60;99.90;;;;;;5078021;28;20401;-50
2021/01/01 03:53:56;;;;;;;21.45;13.05;;;6.50;99.90;;;;;;5080197;28;20394;-50
2021/01/01 03:56:21;;;;;;;23.23;13.40;;;4.80;99.90;;;;;;5079325;28;20396;-51
2021/01/01 03:58:48;;;;;;;22.38;13.00;;;6.00;99.90;;;;;;5084379;28;20413;-51
2021/01/01 04:01:17;;;;;;;21.97;12.40;;;4.10;99.90;;;;;;5082272;28;20486;-52
2021/01/01 04:03:43;;;;;;;21.70;12.25;;;4.20;99.90;;;;;;5081148;28;20370;-51
2021/01/01 04:06:09;;;;;;;21.60;12.55;;;4.20;99.90;;;;;;5089588;28;20401;-50
2021/01/01 04:08:35;;;;;;;22.40;12.93;;;4.30;99.90;;;;;;5082156;28;20402;-50
2021/01/01 04:11:01;;;;;;;22.02;12.95;;;4.30;99.90;;;;;;5081379;28;20381;-51
2021/01/01 04:13:26;;;;;;;20.47;12.20;;;4.30;99.90;;;;;;5082094;28;20390;-51
2021/01/01 04:15:52;;;;;;;19.50;11.47;;;4.40;99.90;;;;;;5081102;28;20793;-52
2021/01/01 04:18:18;;;;;;;19.05;12.05;;;4.40;99.90;;;;;;5082320;28;20768;-51
2021/01/01 04:20:43;;;;;;;23.37;12.43;;;4.40;99.90;;;;;;5077972;28;20769;-51
2021/01/01 04:23:10;;;;;;;21.10;12.82;;;4.40;99.90;;;;;;5078443;28;20427;-51
2021/01/01 04:25:35;;;;;;;20.23;12.35;;;3.10;99.90;;;;;;5084262;28;20385;-50
2021/01/01 04:28:01;;;;;;;20.10;11.60;;;4.30;99.90;;;;;;5083803;28;20409;-51
2021/01/01 04:30:26;;;;;;;21.55;13.38;;;4.40;99.90;;;;;;5078519;28;20735;-51
2021/01/01 04:32:52;;;;;;;20.80;12.10;;;5.40;99.90;;;;;;5106434;28;20380;-51
2021/01/01 04:35:18;;;;;;;20.65;12.30;;;6.10;99.90;;;;;;5087998;28;20397;-51
2021/01/01 04:37:43;;;;;;;20.70;12.73;;;5.10;99.90;;;;;;5087140;28;20733;-51
2021/01/01 04:40:09;;;;;;;22.27;12.45;;;4.60;99.90;;;;;;5086051;28;20407;-50
2021/01/01 04:42:36;;;;;;;20.02;12.00;;;4.50;99.90;;;;;;5083601;28;20428;-51
2021/01/01 04:45:06;;;;;;;24.08;13.60;;;4.30;99.90;;;;;;5086375;28;20387;-52
2021/01/01 04:47:34;;;;;;;22.90;12.80;;;4.20;99.90;;;;;;5083817;28;20744;-50
2021/01/01 04:50:01;;;;;;;21.53;12.70;;;4.30;99.90;;;;;;5088789;28;20461;-50
2021/01/01 04:52:31;;;;;;;22.50;13.45;;;4.30;99.90;;;;;;5081046;28;20499;-50
2021/01/01 04:54:59;;;;;;;23.70;13.43;;;4.40;99.90;;;;;;5093157;28;20865;-50
2021/01/01 04:57:24;;;;;;;21.58;12.55;;;4.30;99.90;;;;;;5086500;28;20399;-50
2021/01/01 04:59:50;;;;;;;20.40;12.50;;;4.40;99.90;;;;;;5083311;28;20435;-50
2021/01/01 05:02:16;;;;;;;22.50;13.05;;;4.40;99.90;;;;;;5092205;28;20725;-50
2021/01/01 05:04:45;;;;;;;21.17;12.10;;;4.50;99.90;;;;;;5081421;28;20438;-50
2021/01/01 05:07:16;;;;;;;22.80;11.98;;;4.70;99.90;;;;;;5088475;28;20409;-57
2021/01/01 05:09:42;;;;;;;22.88;12.57;;;4.70;99.90;;;;;;5093060;28;20855;-51
2021/01/01 05:12:08;;;;;;;21.58;12.82;;;4.40;99.90;;;;;;5072371;28;20761;-50
2021/01/01 05:14:34;;;;;;;21.25;12.73;;;4.40;99.90;;;;;;5088089;28;20769;-50
2021/01/01 05:17:00;;;;;;;22.27;13.00;;;4.40;99.90;;;;;;5090176;28;20399;-51
2021/01/01 05:19:35;;;;;;;21.87;12.80;;;4.50;99.90;;;;;;5078522;28;20399;-51
2021/01/01 05:22:06;;;;;;;23.33;12.98;;;4.70;99.90;;;;;;5087820;28;20431;-55
2021/01/01 05:24:42;;;;;;;19.88;11.38;;;5.60;99.90;;;;;;5082746;28;20401;-50
2021/01/01 05:27:12;;;;;;;22.75;12.38;;;4.20;99.90;;;;;;5072641;28;20504;-51
2021/01/01 05:29:55;;;;;;;22.40;12.20;;;6.20;99.90;;;;;;5081036;28;20452;-50
2021/01/01 05:32:23;;;;;;;20.13;10.85;;;4.10;99.90;;;;;;5091996;28;20386;-50
2021/01/01 05:34:49;;;;;;;20.65;11.57;;;6.70;99.90;;;;;;5080139;28;20399;-50
2021/01/01 05:37:32;;;;;;;22.00;11.73;;;4.10;99.90;;;;;;5087809;28;20469;-53
2021/01/01 05:40:07;;;;;;;24.95;12.90;;;4.10;99.90;;;;;;5089672;28;20399;-50
2021/01/01 05:42:34;;;;;;;22.58;11.98;;;4.00;99.90;;;;;;5081344;28;20398;-50
2021/01/01 05:45:15;;;;;;;20.77;10.55;;;3.90;99.90;;;;;;5072158;28;20383;-50
2021/01/01 05:47:41;;;;;;;21.58;11.55;;;5.80;99.90;;;;;;5073143;28;20408;-50
2021/01/01 05:50:08;;;;;;;20.92;10.32;;;3.80;99.90;;;;;;5080797;28;20472;-50
2021/01/01 05:52:34;;;;;;;17.80;9.52;;;3.80;99.90;;;;;;5083637;28;20443;-53
2021/01/01 05:55:02;;;;;;;19.30;9.80;;;4.30;99.90;;;;;;5071915;28;20388;-50
2021/01/01 05:57:35;;;;;;;18.50;9.40;;;3.50;99.90;;;;;;5076746;28;20806;-51
2021/01/01 06:00:10;;;;;;;15.40;8.68;;;3.60;99.90;;;;;;5084536;28;20486;-50
2021/01/01 06:02:40;;;;;;;15.02;8.35;;;3.50;99.90;;;;;;5080525;28;20399;-51
2021/01/01 06:05:09;;;;;;;12.60;7.43;;;3.70;99.90;;;;;;5072755;28;20395;-50
2021/01/01 06:07:40;;;;;;;12.30;7.18;;;3.40;99.90;;;;;;5082016;28;20903;-53
2021/01/01 06:10:07;;;;;;;14.70;8.13;;;6.40;99.90;;;;;;5078163;28;20903;-51
2021/01/01 06:12:39;;;;;;;12.25;7.18;;;3.50;99.90;;;;;;5086968;28;20973;-50
2021/01/01 06:15:08;;;;;;;13.52;6.53;;;3.40;99.90;;;;;;5076966;28;20499;-52
2021/01/01 06:17:53;;;;;;;11.68;5.75;;;3.40;99.90;;;;;;5083117;28;20465;-52
2021/01/01 06:20:23;;;;;;;10.38;5.75;;;3.40;99.90;;;;;;5077106;28;20406;-50
2021/01/01 06:22:59;;;;;;;11.10;5.65;;;3.30;99.90;;;;;;5082495;28;20396;-50
2021/01/01 06:25:25;;;;;;;10.07;5.32;;;3.40;99.90;;;;;;5076035;28;20455;-52
2021/01/01 06:27:51;;;;;;;12.10;6.20;;;3.30;99.90;;;;;;5091039;28;20451;-50
2021/01/01 06:30:19;;;;;;;11.97;5.97;;;3.80;99.90;;;;;;5089127;28;20394;-52
2021/01/01 06:32:45;;;;;;;9.52;5.63;;;3.20;99.90;;;;;;5073818;28;20454;-50
2021/01/01 06:35:21;;;;;;;8.87;4.77;;;5.60;99.90;;;;;;5083130;28;20859;-53
2021/01/01 06:37:50;;;;;;;9.52;4.80;;;3.20;99.90;;;;;;5079506;28;20858;-51
2021/01/01 06:40:21;;;;;;;9.95;5.35;;;3.30;99.90;;;;;;5076285;28;20406;-50
2021/01/01 06:42:54;;;;;;;11.63;5.43;;;5.70;99.90;;;;;;5081373;28;20398;-51
2021/01/01 06:45:41;;;;;;;9.83;4.90;;;3.30;99.90;;;;;;5079503;28;20393;-50
2021/01/01 06:48:09;;;;;;;9.23;4.83;;;3.30;99.90;;;;;;5077844;28;20491;-50
2021/01/01 06:50:37;;;;;;;9.57;4.85;;;3.10;99.90;;;;;;5088122;28;20820;-51
2021/01/01 06:53:05;;;;;;;9.10;4.63;;;5.70;99.90;;;;;;5078862;28;20407;-50
2021/01/01 06:55:32;;;;;;;8.90;4.97;;;3.10;99.90;;;;;;5082892;28;20973;-53
2021/01/01 06:57:58;;;;;;;9.60;4.63;;;3.20;99.90;;;;;;5077798;28;20401;-51
2021/01/01 07:00:49;;;;;;;9.00;4.70;;;4.90;99.90;;;;;;5090166;28;20391;-50
2021/01/01 07:03:35;;;;;;;10.35;6.10;;;3.10;99.90;;;;;;5076815;28;20403;-56
2021/01/01 07:06:01;;;;;;;10.77;5.50;;;5.40;99.90;;;;;;5079507;28;20402;-50
2021/01/01 07:08:45;;;;;;;10.43;5.00;;;3.10;99.90;;;;;;5079446;28;20903;-50
2021/01/01 07:11:13;;;;;;;8.65;4.93;;;4.10;99.90;;;;;;5086104;28;20400;-53
2021/01/01 07:13:44;;;;;;;7.93;4.38;;;3.00;99.90;;;;;;5090205;28;20427;-50
2021/01/01 07:16:10;;;;;;;8.70;4.50;;;5.20;99.90;;;;;;5080259;28;20412;-50
2021/01/01 07:18:36;;;;;;;8.25;4.70;;;3.00;99.90;;;;;;5085235;28;20427;-51
2021/01/01 07:21:03;;;;;;;11.55;5.70;;;3.40;99.90;;;;;;5087626;28;20763;-50
2021/01/01 07:23:29;;;;;;;10.40;4.30;;;3.30;99.90;;;;;;5076981;28;20404;-57
2021/01/01 07:25:55;;;;;;;8.50;3.90;;;3.10;99.90;;;;;;5090981;28;20419;-56
2021/01/01 07:28:23;;;;;;;7.32;3.85;;;3.10;99.90;;;;;;5080723;28;20374;-56
2021/01/01 07:30:49;;;;;;;7.50;4.00;;;3.20;99.90;;;;;;5102571;28;20471;-55
2021/01/01 07:33:26;;;;;;;8.10;4.20;;;3.20;99.90;;;;;;5096693;28;20432;-56
2021/01/01 07:35:59;;;;;;;6.73;3.87;;;3.10;99.90;;;;;;5105776;28;20368;-56
2021/01/01 07:38:26;;;;;;;7.10;3.90;;;5.60;99.90;;;;;;5076173;28;20433;-55
2021/01/01 07:40:53;;;;;;;8.98;4.40;;;3.60;99.90;;;;;;5082967;28;20460;-55
2021/01/01 07:43:19;;;;;;;6.95;3.53;;;3.20;99.90;;;;;;5078900;28;20376;-55
2021/01/01 07:45:45;;;;;;;6.97;3.87;;;3.20;99.90;;;;;;5075308;28;20403;-55
2021/01/01 07:48:11;;;;;;;6.90;4.00;;;3.70;99.90;;;;;;5076998;28;20401;-57
2021/01/01 07:50:38;;;;;;;7.50;3.80;;;3.20;99.90;;;;;;5078560;28;20470;-51
2021/01/01 07:53:13;;;;;;;8.35;4.30;;;3.20;99.90;;;;;;5076701;28;20425;-51
2021/01/01 07:55:41;;;;;;;8.43;3.85;;;3.20;99.90;;;;;;5078726;28;20399;-52
2021/01/01 07:58:14;;;;;;;7.35;3.80;;;6.20;99.90;;;;;;5076221;28;20884;-52
2021/01/01 08:00:47;;;;;;;6.82;3.78;;;6.00;99.90;;;;;;5074998;28;20400;-51
2021/01/01 08:03:14;;;;;;;8.30;4.50;;;3.40;99.90;;;;;;5075111;28;20487;-55
2021/01/01 08:05:46;;;;;;;16.60;7.88;;;4.50;99.90;;;;;;5072926;28;20470;-51
2021/01/01 08:08:16;;;;;;;11.93;6.00;;;5.90;99.90;;;;;;5079654;28;20401;-55
2021/01/01 08:10:43;;;;;;;14.65;8.25;;;3.40;99.90;;;;;;5085350;28;20421;-51
2021/01/01 08:13:26;;;;;;;9.80;5.90;;;3.50;99.90;;;;;;5092683;28;20386;-52
2021/01/01 08:15:55;;;;;;;8.50;4.30;;;4.10;99.90;;;;;;5081024;28;20397;-51
2021/01/01 08:18:23;;;;;;;8.40;4.30;;;3.50;99.90;;;;;;5078740;28;20387;-52
2021/01/01 08:20:55;;;;;;;9.13;4.50;;;3.50;99.90;;;;;;5084825;28;20382;-52
2021/01/01 08:23:21;;;;;;;7.50;4.13;;;3.50;99.90;;;;;;5084595;28;20890;-52
2021/01/01 08:25:47;;;;;;;8.85;5.00;;;5.70;99.90;;;;;;5080484;28;20469;-51
2021/01/01 08:28:19;;;;;;;8.73;4.72;;;3.70;99.90;;;;;;5075217;28;20743;-54
2021/01/01 08:30:51;;;;;;;9.52;4.95;;;3.70;99.90;;;;;;5080904;28;20957;-51
2021/01/01 08:33:17;;;;;;;10.43;5.60;;;5.00;99.90;;;;;;5078824;28;20470;-51
2021/01/01 08:35:44;;;;;;;9.43;5.25;;;3.70;99.90;;;;;;5079606;28;20411;-51
2021/01/01 08:38:18;;;;;;;7.78;4.65;;;6.00;99.90;;;;;;5077463;28;20487;-51
2021/01/01 08:40:44;;;;;;;9.73;5.57;;;3.50;99.90;;;;;;5081517;28;20436;-51
2021/01/01 08:43:10;;;;;;;9.35;4.93;;;3.50;99.90;;;;;;5081862;28;20879;-55
2021/01/01 08:45:37;;;;;;;9.77;5.60;;;3.50;99.90;;;;;;5074724;28;20433;-51
2021/01/01 08:48:10;;;;;;;9.82;5.20;;;3.50;99.90;;;;;;5080710;28;20391;-51
2021/01/01 08:50:43;;;;;;;9.75;5.55;;;3.50;99.90;;;;;;5076459;28;20400;-51
2021/01/01 08:53:09;;;;;;;8.75;5.00;;;4.70;99.90;;;;;;5083914;28;20509;-51
2021/01/01 08:55:35;;;;;;;10.57;5.53;;;5.20;99.90;;;;;;5075437;28;20404;-52
2021/01/01 08:58:11;;;;;;;10.63;5.50;;;3.60;99.90;;;;;;5074337;28;20871;-52
2021/01/01 09:00:38;;;;;;;9.75;5.32;;;3.80;99.90;;;;;;5073213;28;20871;-51
2021/01/01 09:03:05;;;;;;;11.33;5.67;;;5.50;99.90;;;;;;5080235;28;20555;-51
2021/01/01 09:05:31;;;;;;;9.80;5.38;;;4.20;99.90;;;;;;5075918;28;20474;-51
2021/01/01 09:08:13;;;;;;;10.00;5.77;;;4.20;99.90;;;;;;5079495;28;20465;-51
2021/01/01 09:10:43;;;;;;;10.25;5.20;;;4.30;99.90;;;;;;5079018;28;20386;-51
2021/01/01 09:13:23;;;;;;;9.00;5.40;;;4.40;99.90;;;;;;5073318;28;20429;-51
2021/01/01 09:16:01;;;;;;;8.57;5.10;;;3.60;99.90;;;;;;5078649;28;20853;-51
2021/01/01 09:18:27;;;;;;;10.30;5.65;;;4.40;99.90;;;;;;5079683;28;20390;-51
2021/01/01 09:21:09;;;;;;;9.17;5.40;;;4.20;99.90;;;;;;5090369;28;21204;-50
2021/01/01 09:23:34;;;;;;;9.38;5.50;;;4.40;99.90;;;;;;5078778;28;21260;-51
2021/01/01 09:26:00;;;;;;;9.00;5.50;;;4.50;99.90;;;;;;5087588;28;20414;-50
2021/01/01 09:28:26;;;;;;;9.48;5.53;;;4.50;99.90;;;;;;5078018;28;20404;-51
2021/01/01 09:30:51;;;;;;;10.07;5.30;;;4.50;99.90;;;;;;5085684;28;20711;-51
2021/01/01 09:33:17;;;;;;;10.03;5.50;;;4.60;99.90;;;;;;5080808;28;20742;-52
2021/01/01 09:35:42;;;;;;;8.30;4.90;;;4.60;99.90;;;;;;5082411;28;20401;-51
2021/01/01 09:38:08;;;;;;;9.40;4.93;;;4.80;99.90;;;;;;5090098;28;20386;-51
2021/01/01 09:40:34;;;;;;;9.50;4.83;;;4.50;99.90;;;;;;5080609;28;20590;-51
2021/01/01 09:43:02;;;;;;;10.00;5.10;;;4.50;99.90;;;;;;5078824;28;20402;-51
2021/01/01 09:45:27;;;;;;;9.50;5.23;;;4.20;99.90;;;;;;5087574;28;20439;-51
2021/01/01 09:47:53;;;;;;;10.97;5.50;;;6.20;99.90;;;;;;5084007;28;20417;-51
2021/01/01 09:50:19;;;;;;;9.43;5.07;;;4.70;99.90;;;;;;5086494;28;20705;-52
2021/01/01 09:52:44;;;;;;;9.95;5.30;;;6.00;99.90;;;;;;5088499;28;20401;-52
2021/01/01 09:55:10;;;;;;;10.17;5.27;;;4.20;99.90;;;;;;5082375;28;20406;-51
2021/01/01 09:57:39;;;;;;;10.85;6.00;;;4.20;99.90;;;;;;5080661;28;20422;-51
2021/01/01 10:00:10;;;;;;;10.57;5.90;;;4.40;99.90;;;;;;5088759;28;20756;-52
2021/01/01 10:02:36;;;;;;;9.48;5.53;;;4.60;99.90;;;;;;5082332;28;20411;-51
2021/01/01 10:05:02;;;;;;;12.02;6.20;;;5.70;99.90;;;;;;5087785;28;20845;-51
2021/01/01 10:07:29;;;;;;;9.90;5.88;;;4.80;99.90;;;;;;5082642;28;20878;-51
2021/01/01 10:09:54;;;;;;;11.43;5.70;;;4.70;99.90;;;;;;5084590;28;20465;-51
2021/01/01 10:12:20;;;;;;;11.50;6.20;;;4.50;99.90;;;;;;5089941;28;20432;-51
2021/01/01 10:14:45;;;;;;;11.88;6.57;;;4.50;99.90;;;;;;5082514;28;20385;-51
2021/01/01 10:17:11;;;;;;;12.30;7.00;;;4.50;99.90;;;;;;5073046;28;20388;-55
2021/01/01 10:19:41;;;;;;;14.15;8.45;;;4.40;99.90;;;;;;5071606;28;20403;-52
2021/01/01 10:22:07;;;;;;;11.60;6.32;;;4.50;99.90;;;;;;5076797;28;20924;-51
2021/01/01 10:24:33;;;;;;;12.15;6.65;;;4.50;99.90;;;;;;5080906;28;20448;-51
2021/01/01 10:26:59;;;;;;;15.13;8.30;;;4.40;99.90;;;;;;5080257;28;21005;-51
2021/01/01 10:29:24;;;;;;;12.13;6.68;;;4.50;99.90;;;;;;5075135;28;20401;-52
2021/01/01 10:31:50;;;;;;;12.80;7.07;;;4.70;99.90;;;;;;5078989;28;20738;-51
2021/01/01 10:34:16;;;;;;;11.60;5.90;;;4.60;99.90;;;;;;5077689;28;20475;-52
2021/01/01 10:36:41;;;;;;;11.23;6.28;;;4.50;99.90;;;;;;5087089;28;20410;-52
2021/01/01 10:39:08;;;;;;;11.30;6.20;;;6.50;99.90;;;;;;5086861;28;20392;-52
2021/01/01 10:41:37;;;;;;;11.82;6.30;;;4.50;99.90;;;;;;5082043;28;20401;-52
2021/01/01 10:44:05;;;;;;;12.77;6.50;;;4.60;99.90;;;;;;5087499;28;20440;-51
2021/01/01 10:46:31;;;;;;;12.80;7.28;;;4.70;99.90;;;;;;5082245;28;20863;-52
2021/01/01 10:48:59;;;;;;;11.70;6.20;;;4.80;99.90;;;;;;5082772;28;20381;-52
2021/01/01 10:51:26;;;;;;;12.75;6.63;;;4.90;99.90;;;;;;5086993;28;20398;-52
2021/01/01 10:53:52;;;;;;;11.23;6.25;;;5.10;99.90;;;;;;5076909;28;20745;-52
2021/01/01 10:56:25;;;;;;;12.57;6.40;;;5.30;99.90;;;;;;5083629;28;20404;-52
2021/01/01 10:58:51;;;;;;;11.98;6.95;;;5.30;99.90;;;;;;5074086;28;20435;-51
2021/01/01 11:01:21;;;;;;;12.25;6.28;;;5.30;99.90;;;;;;5080643;28;20837;-52
2021/01/01 11:03:48;;;;;;;11.85;6.80;;;5.30;99.90;;;;;;5081566;28;20402;-52
2021/01/01 11:06:14;;;;;;;14.73;7.67;;;7.30;99.90;;;;;;5081886;28;20466;-55
2021/01/01 11:08:45;;;;;;;14.75;7.65;;;5.30;99.90;;;;;;5082693;28;20410;-51
2021/01/01 11:11:12;;;;;;;11.32;6.60;;;5.20;99.90;;;;;;5088537;28;20374;-52
2021/01/01 11:13:50;;;;;;;11.43;6.30;;;6.20;99.90;;;;;;5077688;28;21287;-52
2021/01/01 12:22:54;;;;;;;11.05;6.20;;;5.90;99.90;;;;;;5070453;28;20496;-52
2021/01/01 12:25:20;;;;;;;71.13;32.15;;;5.80;99.90;;;;;;5070926;28;20916;-52
2021/01/01 12:27:48;;;;;;;57.93;27.77;;;5.70;99.90;;;;;;5076981;28;20521;-52
2021/01/01 12:30:16;;;;;;;35.90;19.30;;;5.60;99.90;;;;;;5083417;28;20409;-55
2021/01/01 12:32:42;;;;;;;35.50;20.50;;;5.40;99.90;;;;;;5087287;28;20386;-52
2021/01/01 12:35:09;;;;;;;17.50;12.23;;;5.40;99.90;;;;;;5079318;28;20451;-53
2021/01/01 12:37:37;;;;;;;15.48;11.63;;;5.30;99.90;;;;;;5083473;28;20505;-52
2021/01/01 12:40:04;;;;;;;13.50;8.20;;;5.50;99.90;;;;;;5078001;28;20497;-53
2021/01/01 12:42:30;;;;;;;10.93;5.80;;;5.50;99.90;;;;;;5081574;28;20394;-53
2021/01/01 12:44:55;;;;;;;11.43;5.97;;;5.50;99.90;;;;;;5085718;28;20412;-52
2021/01/01 12:47:21;;;;;;;10.00;5.60;;;5.60;99.90;;;;;;5079026;28;20772;-53
2021/01/01 12:49:46;;;;;;;9.47;5.57;;;5.60;99.90;;;;;;5080875;28;20468;-50
2021/01/01 12:52:12;;;;;;;9.32;4.50;;;5.90;99.90;;;;;;5081394;28;20392;-52
2021/01/01 12:54:38;;;;;;;7.53;3.70;;;6.10;99.90;;;;;;5089147;28;20547;-53
2021/01/01 12:57:04;;;;;;;9.13;4.60;;;6.20;99.90;;;;;;5086279;28;22519;-52
2021/01/01 12:59:30;;;;;;;8.77;4.57;;;5.90;99.90;;;;;;5086120;28;20382;-52
2021/01/01 13:01:56;;;;;;;9.57;4.67;;;5.80;99.90;;;;;;5084368;28;20705;-52
2021/01/01 13:04:21;;;;;;;9.48;5.10;;;5.80;99.90;;;;;;5085641;28;20398;-53
2021/01/01 13:06:47;;;;;;;9.65;5.13;;;5.90;99.90;;;;;;5084445;28;20904;-52
2021/01/01 13:09:13;;;;;;;9.60;4.80;;;5.90;99.90;;;;;;5084961;28;20908;-55
2021/01/01 13:11:46;;;;;;;9.57;4.93;;;5.90;99.90;;;;;;5083267;28;20461;-52
2021/01/01 13:14:12;;;;;;;9.93;5.57;;;5.80;99.90;;;;;;5079744;28;20468;-53
2021/01/01 13:16:38;;;;;;;12.43;5.50;;;5.90;99.90;;;;;;5084266;28;20386;-52
2021/01/01 13:19:04;;;;;;;11.48;6.30;;;6.30;99.90;;;;;;5079778;28;20865;-53
2021/01/01 13:21:32;;;;;;;11.60;5.80;;;5.90;99.90;;;;;;5088709;28;20436;-53
2021/01/01 13:23:59;;;;;;;11.13;5.53;;;5.90;99.90;;;;;;5084650;28;20418;-52
2021/01/01 13:26:26;;;;;;;11.85;5.63;;;5.80;99.90;;;;;;5081314;28;20430;-52
2021/01/01 13:28:53;;;;;;;10.30;5.60;;;5.80;99.90;;;;;;5084547;28;20416;-52
2021/01/01 13:31:19;;;;;;;10.77;6.13;;;5.80;99.90;;;;;;5081996;28;20547;-53
2021/01/01 13:33:47;;;;;;;12.38;7.05;;;5.70;99.90;;;;;;5085344;28;20393;-53
2021/01/01 13:36:18;;;;;;;12.13;6.50;;;5.70;99.90;;;;;;5084661;28;20978;-53
2021/01/01 13:38:45;;;;;;;13.45;8.18;;;5.80;99.90;;;;;;5085675;28;20396;-56
2021/01/01 13:41:13;;;;;;;13.32;7.18;;;5.80;99.90;;;;;;5076112;28;20422;-54
2021/01/01 13:43:41;;;;;;;11.65;5.95;;;5.80;99.90;;;;;;5072727;28;20414;-54
2021/01/01 13:46:08;;;;;;;10.95;6.30;;;6.30;99.90;;;;;;5082272;28;20782;-52
2021/01/01 13:48:37;;;;;;;10.70;6.00;;;6.10;99.90;;;;;;5078540;28;20485;-52
2021/01/01 13:51:03;;;;;;;13.13;6.65;;;5.80;99.90;;;;;;5090203;28;20386;-53
2021/01/01 13:53:29;;;;;;;12.60;6.50;;;5.60;99.90;;;;;;5079287;28;20430;-53